createdAt,value
2018-09-07T00:01:20.561Z,15.20
2018-09-07T00:03:54.887Z,15.40
2018-09-07T00:06:29.310Z,15.50
2018-09-07T00:09:04.427Z,15.40
2018-09-07T00:11:38.753Z,15.40
2018-09-07T00:14:13.032Z,15.70
2018-09-07T00:16:47.380Z,15.50
2018-09-07T00:19:21.694Z,15.60
2018-09-07T00:21:56.160Z,15.80
2018-09-07T00:24:30.525Z,15.90
2018-09-07T00:27:04.840Z,15.90
2018-09-07T00:29:39.227Z,15.90
2018-09-07T00:32:13.669Z,15.90
2018-09-07T00:34:48.110Z,15.90
2018-09-07T00:37:22.522Z,15.80
2018-09-07T00:39:56.959Z,15.60
2018-09-07T00:42:31.301Z,15.60
2018-09-07T00:45:06.347Z,15.50
2018-09-07T00:47:40.849Z,15.40
2018-09-07T00:50:15.364Z,15.20
2018-09-07T00:52:49.723Z,15.30
2018-09-07T00:55:24.174Z,15.50
2018-09-07T00:57:58.565Z,15.70
2018-09-07T01:00:33.135Z,15.80
2018-09-07T01:03:07.455Z,15.90
2018-09-07T01:05:41.874Z,15.80
2018-09-07T01:08:16.192Z,15.70
2018-09-07T01:10:50.842Z,15.60
2018-09-07T01:13:25.495Z,15.30
2018-09-07T01:15:59.730Z,15.20
2018-09-07T01:18:34.269Z,15.40
2018-09-07T01:21:08.580Z,15.60
2018-09-07T01:23:42.832Z,15.60
2018-09-07T01:26:17.306Z,15.70
2018-09-07T01:28:51.730Z,15.80
2018-09-07T01:31:26.259Z,15.90
2018-09-07T01:34:00.615Z,15.90
2018-09-07T01:36:35.067Z,15.90
2018-09-07T01:39:09.428Z,15.80
2018-09-07T01:41:43.848Z,15.90
2018-09-07T01:44:18.254Z,16.00
2018-09-07T01:46:53.059Z,16.00
2018-09-07T01:49:27.320Z,16.10
2018-09-07T01:52:01.634Z,16.10
2018-09-07T01:54:35.973Z,16.10
2018-09-07T01:57:10.421Z,16.10
2018-09-07T01:59:44.680Z,16.20
2018-09-07T02:02:19.099Z,16.10
2018-09-07T02:04:53.555Z,16.00
2018-09-07T02:07:27.956Z,15.80
2018-09-07T02:10:02.478Z,15.90
2018-09-07T02:12:36.901Z,16.00
2018-09-07T02:15:11.459Z,16.00
2018-09-07T02:17:45.813Z,16.10
2018-09-07T02:20:20.245Z,16.10
2018-09-07T02:22:54.585Z,16.20
2018-09-07T02:25:28.992Z,16.20
2018-09-07T02:28:03.315Z,15.60
2018-09-07T02:30:37.814Z,15.70
2018-09-07T02:33:12.255Z,15.80
2018-09-07T02:35:46.687Z,15.90
2018-09-07T02:38:21.052Z,16.00
2018-09-07T02:40:55.399Z,16.00
2018-09-07T02:43:29.805Z,16.00
2018-09-07T02:46:04.147Z,16.00
2018-09-07T02:48:38.675Z,16.00
2018-09-07T02:51:12.982Z,16.00
2018-09-07T02:53:47.404Z,15.90
2018-09-07T02:56:21.702Z,15.70
2018-09-07T02:58:56.371Z,15.60
2018-09-07T03:01:30.815Z,15.60
2018-09-07T03:04:05.267Z,15.60
2018-09-07T03:06:39.557Z,15.70
2018-09-07T03:09:13.968Z,15.40
2018-09-07T03:11:48.284Z,15.40
2018-09-07T03:14:22.774Z,15.30
2018-09-07T03:18:21.600Z,15.10
2018-09-07T03:20:55.896Z,14.90
2018-09-07T03:23:30.383Z,14.90
2018-09-07T03:26:04.865Z,15.10
2018-09-07T03:28:39.207Z,15.30
2018-09-07T03:31:13.656Z,15.20
2018-09-07T03:33:48.143Z,14.90
2018-09-07T03:36:22.425Z,14.80
2018-09-07T03:38:56.671Z,14.90
2018-09-07T03:41:31.175Z,15.00
2018-09-07T03:44:05.608Z,15.10
2018-09-07T03:46:40.096Z,15.20
2018-09-07T03:49:14.555Z,15.40
2018-09-07T03:51:48.866Z,15.30
2018-09-07T03:54:23.232Z,15.40
2018-09-07T03:56:57.636Z,15.50
2018-09-07T03:59:31.968Z,15.60
2018-09-07T04:02:06.382Z,15.70
2018-09-07T04:04:40.943Z,15.80
2018-09-07T04:07:15.348Z,15.80
2018-09-07T04:09:49.823Z,15.80
2018-09-07T04:12:24.303Z,15.70
2018-09-07T04:14:58.688Z,15.50
2018-09-07T04:17:33.221Z,15.60
2018-09-07T04:20:07.588Z,15.70
2018-09-07T04:22:42.055Z,15.70
2018-09-07T04:25:16.384Z,15.70
2018-09-07T04:27:50.679Z,15.70
2018-09-07T04:30:25.056Z,15.80
2018-09-07T04:32:59.278Z,15.50
2018-09-07T04:35:33.692Z,15.60
2018-09-07T04:38:08.388Z,15.50
2018-09-07T04:40:42.907Z,15.60
2018-09-07T04:43:17.428Z,15.60
2018-09-07T04:45:51.802Z,15.50
2018-09-07T04:48:26.222Z,15.60
2018-09-07T04:51:00.596Z,15.70
2018-09-07T04:53:35.137Z,15.70
2018-09-07T04:56:09.618Z,15.80
2018-09-07T04:58:44.026Z,15.90
2018-09-07T05:01:18.614Z,15.90
2018-09-07T05:03:53.132Z,15.90
2018-09-07T05:06:27.546Z,15.80
2018-09-07T05:09:02.071Z,15.80
2018-09-07T05:11:36.749Z,15.90
2018-09-07T05:14:11.187Z,15.80
2018-09-07T05:16:45.490Z,15.90
2018-09-07T05:19:19.815Z,15.90
2018-09-07T05:21:54.162Z,15.80
2018-09-07T05:24:28.466Z,15.60
2018-09-07T05:27:02.878Z,15.40
2018-09-07T05:29:37.256Z,15.30
2018-09-07T05:32:11.623Z,15.00
2018-09-07T05:34:46.105Z,15.10
2018-09-07T05:37:20.443Z,15.00
2018-09-07T05:39:54.787Z,15.10
2018-09-07T05:42:29.278Z,15.30
2018-09-07T05:45:03.697Z,15.40
2018-09-07T05:47:38.100Z,15.60
2018-09-07T05:50:12.484Z,15.70
2018-09-07T05:52:46.844Z,15.70
2018-09-07T05:55:21.261Z,15.80
2018-09-07T05:57:55.702Z,15.80
2018-09-07T06:00:30.140Z,15.60
2018-09-07T06:03:04.449Z,15.70
2018-09-07T06:05:38.855Z,15.60
2018-09-07T06:08:13.222Z,15.50
2018-09-07T06:10:47.590Z,15.50
2018-09-07T06:13:22.129Z,15.50
2018-09-07T06:15:56.479Z,15.40
2018-09-07T06:18:30.815Z,15.60
2018-09-07T06:21:05.248Z,15.50
2018-09-07T06:23:39.546Z,15.60
2018-09-07T06:26:13.872Z,15.30
2018-09-07T06:28:48.214Z,15.40
2018-09-07T06:31:22.505Z,15.40
2018-09-07T06:33:56.878Z,15.30
2018-09-07T06:36:31.322Z,15.10
2018-09-07T06:39:07.627Z,15.30
2018-09-07T06:41:41.888Z,15.30
2018-09-07T06:44:16.488Z,15.30
2018-09-07T06:46:51.080Z,15.50
2018-09-07T06:49:25.542Z,15.60
2018-09-07T06:52:00.836Z,15.70
2018-09-07T06:54:35.152Z,15.50
2018-09-07T06:57:09.467Z,15.40
2018-09-07T06:59:43.964Z,15.60
2018-09-07T07:02:18.489Z,15.60
2018-09-07T07:04:52.760Z,15.80
2018-09-07T07:07:27.305Z,16.00
2018-09-07T07:10:01.759Z,16.10
2018-09-07T07:12:36.152Z,15.90
2018-09-07T07:15:10.652Z,15.80
2018-09-07T07:17:44.989Z,16.00
2018-09-07T07:20:19.344Z,16.10
2018-09-07T07:22:53.653Z,16.20
2018-09-07T07:25:28.275Z,16.20
2018-09-07T07:28:02.767Z,16.40
2018-09-07T07:30:37.196Z,16.60
2018-09-07T07:33:11.590Z,16.60
2018-09-07T07:35:46.018Z,16.50
2018-09-07T07:38:20.315Z,16.60
2018-09-07T07:40:54.648Z,16.70
2018-09-07T07:43:29.093Z,16.40
2018-09-07T07:46:03.424Z,16.60
2018-09-07T07:48:37.645Z,16.80
2018-09-07T07:51:12.086Z,16.90
2018-09-07T07:53:46.398Z,17.10
2018-09-07T07:56:20.771Z,16.70
2018-09-07T07:58:55.270Z,16.70
2018-09-07T08:01:29.818Z,16.70
2018-09-07T08:04:04.150Z,16.70
2018-09-07T08:06:38.538Z,16.70
2018-09-07T08:09:13.011Z,16.60
2018-09-07T08:11:47.454Z,16.80
2018-09-07T08:14:21.747Z,17.00
2018-09-07T08:16:56.071Z,16.80
2018-09-07T08:19:30.703Z,16.70
2018-09-07T08:22:04.980Z,16.60
2018-09-07T08:24:39.264Z,16.60
2018-09-07T08:27:13.594Z,16.70
2018-09-07T08:29:47.990Z,16.60
2018-09-07T08:32:22.288Z,16.60
2018-09-07T08:34:56.647Z,16.50
2018-09-07T08:37:31.107Z,16.30
2018-09-07T08:40:05.428Z,16.30
2018-09-07T08:42:39.815Z,16.50
2018-09-07T08:45:14.681Z,16.60
2018-09-07T08:47:49.035Z,16.70
2018-09-07T08:50:24.660Z,16.80
2018-09-07T08:52:59.128Z,16.80
2018-09-07T08:55:33.638Z,16.50
2018-09-07T08:58:08.274Z,16.30
2018-09-07T09:00:42.715Z,16.30
2018-09-07T09:03:17.221Z,16.30
2018-09-07T09:05:51.530Z,16.30
2018-09-07T09:08:26.070Z,16.30
2018-09-07T09:11:00.606Z,16.30
2018-09-07T09:13:34.921Z,16.20
2018-09-07T09:16:09.299Z,16.30
2018-09-07T09:18:43.744Z,16.20
2018-09-07T09:21:18.111Z,16.20
2018-09-07T09:23:52.495Z,16.30
2018-09-07T09:26:27.017Z,16.30
2018-09-07T09:29:01.489Z,16.30
2018-09-07T09:31:35.984Z,16.30
2018-09-07T09:34:10.578Z,16.30
2018-09-07T09:36:45.040Z,16.40
2018-09-07T09:39:19.372Z,16.40
2018-09-07T09:41:53.642Z,16.50
2018-09-07T09:44:28.019Z,16.60
2018-09-07T09:47:02.620Z,16.70
2018-09-07T09:49:37.068Z,16.80
2018-09-07T09:52:11.487Z,16.80
2018-09-07T09:54:45.990Z,16.90
2018-09-07T09:57:20.249Z,16.90
2018-09-07T09:59:54.656Z,17.00
2018-09-07T10:02:33.307Z,17.10
2018-09-07T10:05:12.072Z,17.10
2018-09-07T10:07:47.084Z,17.00
2018-09-07T10:10:21.583Z,17.10
2018-09-07T10:12:55.967Z,17.00
2018-09-07T10:15:30.244Z,17.10
2018-09-07T10:18:04.594Z,17.20
2018-09-07T10:20:39.036Z,17.20
2018-09-07T10:23:13.464Z,17.10
2018-09-07T10:25:47.967Z,17.20
2018-09-07T10:28:22.457Z,17.30
2018-09-07T10:30:56.911Z,17.40
2018-09-07T10:33:31.283Z,17.60
2018-09-07T10:36:05.716Z,17.80
2018-09-07T10:38:40.140Z,18.00
2018-09-07T10:41:14.484Z,18.10
2018-09-07T10:43:48.912Z,18.50
2018-09-07T10:46:23.507Z,18.40
2018-09-07T10:48:57.723Z,17.90
2018-09-07T10:51:32.263Z,17.80
2018-09-07T10:54:06.940Z,17.80
2018-09-07T10:56:41.354Z,18.00
2018-09-07T10:59:15.826Z,18.10
2018-09-07T11:01:50.170Z,17.90
2018-09-07T11:04:24.449Z,17.70
2018-09-07T11:06:58.739Z,17.50
2018-09-07T11:09:33.188Z,17.60
2018-09-07T11:12:07.515Z,17.50
2018-09-07T11:14:42.003Z,17.50
2018-09-07T11:17:16.525Z,17.40
2018-09-07T11:19:51.259Z,17.40
2018-09-07T11:22:25.688Z,17.30
2018-09-07T11:25:00.497Z,17.30
2018-09-07T11:27:34.815Z,17.40
2018-09-07T11:30:09.174Z,17.40
2018-09-07T11:32:43.549Z,17.40
2018-09-07T11:35:17.829Z,17.20
2018-09-07T11:37:52.254Z,17.20
2018-09-07T11:40:26.551Z,17.30
2018-09-07T11:43:00.975Z,17.50
2018-09-07T11:45:37.390Z,17.60
2018-09-07T11:48:11.628Z,17.70
2018-09-07T11:50:46.044Z,17.90
2018-09-07T11:53:20.329Z,18.20
2018-09-07T11:55:54.891Z,18.30
2018-09-07T11:58:29.388Z,18.50
2018-09-07T12:01:03.898Z,18.60
2018-09-07T12:03:38.216Z,18.30
2018-09-07T12:06:12.559Z,18.10
2018-09-07T12:08:46.899Z,18.20
2018-09-07T12:11:21.384Z,18.10
2018-09-07T12:13:55.624Z,18.00
2018-09-07T12:16:29.984Z,18.00
2018-09-07T12:19:04.384Z,18.00
2018-09-07T12:21:38.816Z,18.10
2018-09-07T12:24:13.321Z,18.00
2018-09-07T12:26:47.731Z,18.00
2018-09-07T12:29:22.095Z,17.80
2018-09-07T12:31:56.579Z,17.80
2018-09-07T12:34:31.039Z,17.80
2018-09-07T12:37:05.343Z,17.80
2018-09-07T12:39:39.718Z,17.70
2018-09-07T12:42:14.711Z,17.60
2018-09-07T12:44:49.036Z,17.40
2018-09-07T12:47:23.463Z,17.30
2018-09-07T12:49:57.982Z,17.20
2018-09-07T12:52:32.505Z,17.10
2018-09-07T12:55:06.786Z,17.20
2018-09-07T12:57:41.190Z,17.10
2018-09-07T13:00:15.617Z,17.20
2018-09-07T13:02:50.081Z,17.50
2018-09-07T13:05:24.518Z,17.70
2018-09-07T13:07:58.865Z,17.70
2018-09-07T13:10:33.296Z,17.80
2018-09-07T13:13:07.564Z,18.00
2018-09-07T13:15:42.005Z,18.10
2018-09-07T13:18:16.319Z,18.00
2018-09-07T13:20:50.869Z,18.10
2018-09-07T13:23:25.170Z,18.10
2018-09-07T13:25:59.697Z,18.20
2018-09-07T13:28:34.039Z,18.50
2018-09-07T13:31:08.456Z,18.90
2018-09-07T13:33:43.011Z,19.10
2018-09-07T13:36:17.413Z,19.20
2018-09-07T13:38:51.708Z,19.40
2018-09-07T13:41:26.158Z,19.20
2018-09-07T13:44:00.615Z,19.30
2018-09-07T13:46:35.080Z,19.50
2018-09-07T13:49:09.405Z,19.60
2018-09-07T13:51:43.666Z,19.70
2018-09-07T13:54:18.024Z,19.50
2018-09-07T13:56:52.362Z,19.80
2018-09-07T13:59:26.767Z,20.20
2018-09-07T14:02:01.225Z,20.40
2018-09-07T14:04:35.720Z,20.30
2018-09-07T14:07:10.221Z,20.10
2018-09-07T14:09:44.459Z,19.90
2018-09-07T14:12:18.872Z,19.80
2018-09-07T14:14:53.331Z,20.10
2018-09-07T14:17:27.804Z,20.20
2018-09-07T14:20:02.216Z,19.90
2018-09-07T14:22:36.540Z,19.60
2018-09-07T14:25:11.163Z,19.60
2018-09-07T14:27:45.620Z,19.30
2018-09-07T14:30:20.007Z,19.20
2018-09-07T14:32:54.980Z,19.30
2018-09-07T14:35:29.459Z,19.40
2018-09-07T14:38:03.923Z,19.30
2018-09-07T14:40:38.363Z,19.20
2018-09-07T14:43:13.511Z,19.30
2018-09-07T14:45:48.012Z,19.40
2018-09-07T14:48:22.327Z,19.50
2018-09-07T14:50:56.750Z,19.90
2018-09-07T14:53:31.136Z,20.10
2018-09-07T14:56:05.433Z,20.20
2018-09-07T14:58:39.719Z,20.40
2018-09-07T15:01:14.070Z,20.40
2018-09-07T15:03:48.376Z,20.10
2018-09-07T15:06:22.655Z,19.90
2018-09-07T15:08:57.130Z,19.90
2018-09-07T15:11:31.551Z,19.70
2018-09-07T15:14:06.185Z,19.60
2018-09-07T15:16:40.479Z,19.60
2018-09-07T15:19:14.867Z,19.70
2018-09-07T15:21:49.172Z,19.70
2018-09-07T15:24:23.532Z,19.70
2018-09-07T15:26:57.920Z,19.80
2018-09-07T15:29:32.402Z,20.00
2018-09-07T15:32:06.812Z,20.10
2018-09-07T15:34:41.168Z,19.90
2018-09-07T15:37:16.719Z,19.80
2018-09-07T15:39:51.315Z,19.70
2018-09-07T15:42:25.697Z,19.70
2018-09-07T15:45:00.015Z,19.60
2018-09-07T15:47:35.445Z,19.80
2018-09-07T15:50:11.015Z,19.70
2018-09-07T15:52:45.524Z,19.70
2018-09-07T15:55:20.024Z,19.50
2018-09-07T15:57:54.538Z,19.50
2018-09-07T16:00:29.111Z,19.70
2018-09-07T16:03:03.602Z,19.80
2018-09-07T16:05:37.973Z,19.90
2018-09-07T16:08:12.388Z,19.90
2018-09-07T16:10:47.419Z,19.80
2018-09-07T16:13:21.867Z,19.70
2018-09-07T16:15:56.129Z,19.70
2018-09-07T16:18:30.564Z,19.80
2018-09-07T16:21:05.253Z,19.80
2018-09-07T16:23:39.572Z,19.90
2018-09-07T16:26:14.059Z,19.60
2018-09-07T16:28:48.431Z,19.30
2018-09-07T16:31:22.800Z,19.40
2018-09-07T16:33:57.548Z,19.60
2018-09-07T16:36:31.965Z,19.80
2018-09-07T16:39:07.671Z,19.90
2018-09-07T16:41:42.168Z,19.80
2018-09-07T16:44:16.498Z,19.90
2018-09-07T16:46:50.883Z,19.90
2018-09-07T16:49:25.326Z,19.90
2018-09-07T16:51:59.861Z,19.90
2018-09-07T16:54:34.256Z,19.70
2018-09-07T16:57:08.524Z,19.50
2018-09-07T16:59:42.898Z,19.40
2018-09-07T17:02:17.275Z,19.20
2018-09-07T17:04:51.535Z,19.10
2018-09-07T17:07:26.091Z,19.00
2018-09-07T17:10:00.395Z,19.00
2018-09-07T17:12:34.899Z,19.00
2018-09-07T17:15:09.361Z,18.90
2018-09-07T17:17:43.894Z,18.80
2018-09-07T17:20:18.282Z,18.80
2018-09-07T17:22:52.767Z,18.70
2018-09-07T17:25:27.463Z,18.70
2018-09-07T17:28:02.157Z,18.80
2018-09-07T17:30:36.727Z,18.80
2018-09-07T17:33:11.567Z,18.80
2018-09-07T17:35:46.596Z,18.10
2018-09-07T17:38:21.179Z,17.60
2018-09-07T17:40:56.155Z,17.40
2018-09-07T17:43:30.562Z,17.20
2018-09-07T17:46:05.211Z,16.60
2018-09-07T17:48:39.902Z,16.50
2018-09-07T17:51:14.525Z,16.70
2018-09-07T17:53:49.073Z,17.00
2018-09-07T17:56:23.683Z,17.20
2018-09-07T17:58:58.086Z,17.40
2018-09-07T18:01:32.637Z,17.50
2018-09-07T18:04:07.301Z,17.60
2018-09-07T18:06:41.904Z,17.60
2018-09-07T18:09:16.384Z,17.70
2018-09-07T18:11:50.881Z,17.60
2018-09-07T18:14:25.381Z,17.70
2018-09-07T18:16:59.858Z,17.70
2018-09-07T18:19:34.470Z,17.60
2018-09-07T18:22:08.999Z,17.50
2018-09-07T18:24:43.462Z,17.60
2018-09-07T18:27:18.008Z,17.70
2018-09-07T18:29:52.819Z,17.80
2018-09-07T18:32:27.430Z,17.80
2018-09-07T18:35:02.199Z,17.80
2018-09-07T18:37:36.611Z,17.80
2018-09-07T18:40:11.231Z,17.70
2018-09-07T18:42:46.958Z,17.60
2018-09-07T18:45:22.099Z,17.60
2018-09-07T18:47:56.775Z,17.40
2018-09-07T18:50:31.347Z,17.40
2018-09-07T18:53:06.273Z,17.50
2018-09-07T18:55:44.932Z,17.40
2018-09-07T18:58:19.449Z,17.50
2018-09-07T19:00:54.109Z,17.50
2018-09-07T19:03:28.744Z,17.50
2018-09-07T19:06:03.329Z,17.50
2018-09-07T19:08:37.944Z,17.40
2018-09-07T19:11:12.413Z,17.40
2018-09-07T19:13:46.997Z,17.40
2018-09-07T19:16:21.485Z,17.40
2018-09-07T19:18:56.091Z,17.30
2018-09-07T19:21:30.747Z,17.30
2018-09-07T19:24:05.253Z,17.20
2018-09-07T19:26:39.879Z,17.10
2018-09-07T19:29:14.380Z,17.20
2018-09-07T19:31:48.961Z,17.30
2018-09-07T19:34:23.712Z,17.30
2018-09-07T19:36:58.259Z,17.20
2018-09-07T19:39:32.859Z,17.20
2018-09-07T19:42:07.560Z,17.20
2018-09-07T19:44:42.152Z,17.10
2018-09-07T19:47:16.673Z,17.10
2018-09-07T19:49:51.296Z,17.10
2018-09-07T19:52:25.803Z,17.00
2018-09-07T19:55:00.335Z,17.00
2018-09-07T19:57:34.984Z,17.00
2018-09-07T20:00:09.596Z,17.00
2018-09-07T20:02:44.096Z,16.70
2018-09-07T20:05:18.731Z,16.80
2018-09-07T20:07:53.271Z,16.80
2018-09-07T20:10:27.871Z,16.80
2018-09-07T20:13:02.588Z,16.70
2018-09-07T20:15:37.111Z,16.80
2018-09-07T20:18:11.658Z,16.70
2018-09-07T20:20:46.228Z,16.70
2018-09-07T20:23:20.918Z,16.70
2018-09-07T20:25:55.448Z,16.60
2018-09-07T20:28:30.081Z,16.60
2018-09-07T20:31:04.857Z,16.60
2018-09-07T20:33:39.362Z,16.50
2018-09-07T20:36:13.939Z,16.50
2018-09-07T20:38:48.557Z,16.50
2018-09-07T20:41:23.178Z,16.50
2018-09-07T20:43:57.890Z,16.50
2018-09-07T20:46:32.614Z,16.50
2018-09-07T20:49:07.360Z,16.30
2018-09-07T20:51:41.957Z,16.30
2018-09-07T20:54:16.381Z,16.10
2018-09-07T20:56:51.085Z,16.10
2018-09-07T20:59:25.706Z,16.20
2018-09-07T21:02:00.326Z,16.10
2018-09-07T21:04:34.927Z,16.10
2018-09-07T21:07:09.653Z,16.00
2018-09-07T21:09:44.118Z,16.00
2018-09-07T21:12:18.740Z,16.00
2018-09-07T21:14:53.183Z,16.00
2018-09-07T21:17:27.631Z,16.10
2018-09-07T21:20:02.207Z,16.10
2018-09-07T21:22:36.870Z,16.00
2018-09-07T21:25:11.292Z,15.90
2018-09-07T21:27:46.022Z,15.90
2018-09-07T21:30:20.530Z,15.90
2018-09-07T21:32:55.036Z,15.90
2018-09-07T21:35:29.598Z,15.90
2018-09-07T21:38:04.164Z,15.90
2018-09-07T21:40:38.828Z,15.90
2018-09-07T21:43:13.216Z,16.00
2018-09-07T21:45:47.645Z,16.10
2018-09-07T21:48:22.050Z,16.10
2018-09-07T21:50:56.534Z,16.10
2018-09-07T21:53:31.221Z,16.10
2018-09-07T21:56:05.951Z,16.10
2018-09-07T21:58:40.391Z,15.80
2018-09-07T22:01:15.517Z,15.40
2018-09-07T22:03:50.125Z,15.60
2018-09-07T22:06:24.795Z,15.70
2018-09-07T22:08:59.419Z,15.70
2018-09-07T22:11:33.940Z,15.70
2018-09-07T22:14:08.527Z,15.50
2018-09-07T22:16:43.163Z,15.60
2018-09-07T22:19:17.821Z,15.60
2018-09-07T22:21:52.536Z,15.70
2018-09-07T22:24:26.938Z,15.80
2018-09-07T22:27:01.362Z,15.70
2018-09-07T22:29:35.962Z,15.80
2018-09-07T22:32:11.071Z,15.80
2018-09-07T22:34:45.748Z,15.80
2018-09-07T22:37:20.417Z,15.80
2018-09-07T22:39:54.947Z,15.90
2018-09-07T22:42:29.626Z,15.60
2018-09-07T22:45:04.347Z,15.30
2018-09-07T22:47:38.870Z,15.10
2018-09-07T22:50:13.286Z,15.10
2018-09-07T22:52:47.937Z,15.30
2018-09-07T22:55:22.477Z,15.40
2018-09-07T22:57:56.940Z,15.60
2018-09-07T23:00:31.731Z,15.70
2018-09-07T23:03:06.279Z,15.70
2018-09-07T23:05:40.904Z,15.80
2018-09-07T23:08:15.408Z,15.80
2018-09-07T23:10:49.786Z,15.70
2018-09-07T23:13:24.635Z,15.80
2018-09-07T23:15:59.352Z,15.90
2018-09-07T23:18:34.056Z,15.90
2018-09-07T23:21:08.494Z,15.80
2018-09-07T23:23:43.075Z,15.90
2018-09-07T23:26:17.742Z,15.90
2018-09-07T23:28:52.384Z,15.90
2018-09-07T23:31:26.897Z,15.90
2018-09-07T23:34:01.315Z,16.00
2018-09-07T23:36:35.795Z,16.00
2018-09-07T23:39:11.869Z,15.60
2018-09-07T23:41:46.577Z,15.20
2018-09-07T23:44:21.147Z,15.40
2018-09-07T23:46:55.685Z,15.40
2018-09-07T23:49:30.440Z,15.50
2018-09-07T23:52:05.034Z,15.50
2018-09-07T23:54:39.452Z,15.60
2018-09-07T23:57:13.900Z,15.50
2018-09-07T23:59:48.588Z,15.50
